Time;durP1;ratioP1;P1;durP2;ratioP2;P2;SDS_P1;SDS_P2;PMS_P1;PMS_P2;Temp;Humidity;BMP_temperature;BMP_pressure;BME280_temperature;BME280_humidity;BME280_pressure;Samples;Min_cycle;Max_cycle;Signal;HPM_P1;HPM_P2
2023/10/14 00:00:26;;;;;;;9.80;5.85;;;;;;;11.68;100.00;98818.66;5160863;27;20046;-55
2023/10/14 00:02:52;;;;;;;14.02;5.72;;;;;;;11.82;100.00;98812.50;5160846;27;20065;-55
2023/10/14 00:05:19;;;;;;;10.30;6.00;;;;;;;11.78;100.00;98817.97;5160664;27;20054;-59
2023/10/14 00:07:45;;;;;;;16.10;7.00;;;;;;;11.89;100.00;98815.31;5160829;27;20065;-57
2023/10/14 00:10:12;;;;;;;12.13;5.85;;;;;;;11.72;100.00;98805.75;5160478;27;20412;-57
2023/10/14 00:12:40;;;;;;;16.60;6.00;;;;;;;11.86;100.00;98772.16;5160795;27;20050;-57
2023/10/14 00:15:08;;;;;;;12.95;6.20;;;;;;;11.75;100.00;98777.53;5160407;27;20047;-53
2023/10/14 00:17:37;;;;;;;15.25;6.03;;;;;;;11.79;100.00;98752.81;5160841;27;20332;-55
2023/10/14 00:20:04;;;;;;;23.85;5.65;;;;;;;11.82;100.00;98734.81;5160153;27;20050;-58
2023/10/14 00:22:30;;;;;;;11.02;6.13;;;;;;;11.95;100.00;98750.59;5159985;27;20053;-55
2023/10/14 00:24:58;;;;;;;10.23;6.07;;;;;;;12.09;100.00;98740.88;5160116;27;20078;-57
2023/10/14 00:27:24;;;;;;;12.93;6.65;;;;;;;12.01;100.00;98727.09;5160122;27;20329;-58
2023/10/14 00:30:09;;;;;;;11.10;5.90;;;;;;;11.93;100.00;98720.00;5160416;27;20078;-57
2023/10/14 00:32:35;;;;;;;14.82;9.77;;;;;;;12.06;100.00;98711.41;5160534;27;20046;-56
2023/10/14 00:35:03;;;;;;;12.25;6.50;;;;;;;11.94;100.00;98694.09;5160422;27;20078;-58
2023/10/14 00:37:32;;;;;;;12.30;6.72;;;;;;;11.98;100.00;98677.63;5159919;27;20058;-57
2023/10/14 00:40:01;;;;;;;8.00;5.68;;;;;;;12.11;100.00;98678.88;5160525;27;20099;-57
2023/10/14 00:42:27;;;;;;;12.40;6.22;;;;;;;12.07;100.00;98686.31;5159904;27;20070;-58
2023/10/14 00:44:53;;;;;;;13.90;7.07;;;;;;;12.26;100.00;98665.94;5160397;27;20430;-58
2023/10/14 00:47:23;;;;;;;12.40;6.53;;;;;;;12.19;100.00;98672.19;5159780;27;20051;-59
2023/10/14 00:49:55;;;;;;;15.75;10.63;;;;;;;12.11;100.00;98662.38;5159791;27;20058;-54
2023/10/14 00:52:22;;;;;;;17.67;6.72;;;;;;;12.03;100.00;98644.31;5160296;27;20066;-58
2023/10/14 00:54:58;;;;;;;7.28;5.43;;;;;;;12.06;100.00;98640.75;5159661;27;20450;-59
2023/10/14 00:57:24;;;;;;;15.02;6.85;;;;;;;12.14;100.00;98612.16;5160039;27;20053;-60
2023/10/14 00:59:51;;;;;;;9.80;6.15;;;;;;;12.17;100.00;98614.13;5159629;27;20050;-56
2023/10/14 01:02:26;;;;;;;18.55;7.03;;;;;;;12.10;100.00;98585.84;5160006;27;20046;-56
2023/10/14 01:04:54;;;;;;;12.98;7.15;;;;;;;12.14;100.00;98562.69;5159585;27;20091;-56
2023/10/14 01:07:21;;;;;;;11.13;6.32;;;;;;;12.15;100.00;98547.75;5159992;27;20064;-59
2023/10/14 01:09:52;;;;;;;17.48;7.95;;;;;;;12.39;100.00;98540.72;5159423;27;20053;-56
2023/10/14 01:12:23;;;;;;;12.48;7.03;;;;;;;12.32;100.00;98535.22;5159603;27;20100;-56
2023/10/14 01:14:52;;;;;;;10.48;6.88;;;;;;;12.23;100.00;98523.84;5159677;27;20054;-56
2023/10/14 01:17:25;;;;;;;16.33;7.35;;;;;;;12.39;100.00;98517.94;5159515;27;20047;-55
2023/10/14 01:19:51;;;;;;;14.70;6.55;;;;;;;12.30;100.00;98531.31;5159510;27;20050;-58
2023/10/14 01:22:19;;;;;;;13.10;7.28;;;;;;;12.46;100.00;98528.94;5159229;27;20057;-59
2023/10/14 01:24:45;;;;;;;18.70;7.82;;;;;;;12.53;100.00;98515.22;5159638;27;20042;-60
2023/10/14 01:27:13;;;;;;;13.18;10.68;;;;;;;12.37;100.00;98523.84;5159277;27;20048;-55
2023/10/14 01:29:39;;;;;;;14.70;7.57;;;;;;;12.28;100.00;98501.44;5159598;27;20046;-59
2023/10/14 01:32:25;;;;;;;10.68;6.72;;;;;;;12.25;100.00;98481.03;5159148;27;20053;-56
2023/10/14 01:34:55;;;;;;;14.43;7.30;;;;;;;12.61;100.00;98458.25;5158052;27;20070;-56
2023/10/14 01:37:26;;;;;;;15.52;7.63;;;;;;;12.61;100.00;98461.78;5159365;27;20123;-57
2023/10/14 01:39:56;;;;;;;14.20;7.80;;;;;;;12.38;100.00;98458.66;5158981;27;20392;-60
2023/10/14 01:42:23;;;;;;;15.68;7.63;;;;;;;12.51;100.00;98440.56;5159333;27;20062;-58
2023/10/14 01:44:53;;;;;;;23.73;7.72;;;;;;;12.45;100.00;98451.19;5158967;27;20046;-55
2023/10/14 01:47:19;;;;;;;20.58;8.73;;;;;;;12.92;100.00;98459.34;5159156;27;20323;-57
2023/10/14 01:49:44;;;;;;;21.00;8.38;;;;;;;12.86;100.00;98481.00;5158799;27;20055;-59
2023/10/14 01:52:15;;;;;;;14.18;7.93;;;;;;;12.67;100.00;98490.44;5159170;27;20093;-59
2023/10/14 01:54:42;;;;;;;13.07;7.88;;;;;;;12.82;100.00;98471.16;5158707;27;20434;-59
2023/10/14 01:57:15;;;;;;;14.38;7.82;;;;;;;12.68;100.00;98445.25;5159190;27;20058;-60
2023/10/14 01:59:41;;;;;;;19.42;8.68;;;;;;;12.80;100.00;98451.53;5158739;27;20058;-60
2023/10/14 02:02:09;;;;;;;17.50;8.00;;;;;;;12.82;100.00;98454.66;5158807;27;20057;-55
2023/10/14 02:04:36;;;;;;;14.90;8.07;;;;;;;12.71;100.00;98447.22;5158947;27;20050;-60
2023/10/14 02:07:17;;;;;;;19.92;8.80;;;;;;;12.94;100.00;98435.75;5158631;27;20054;-60
2023/10/14 02:09:44;;;;;;;15.13;8.25;;;;;;;12.84;100.00;98446.78;5158887;27;20131;-59
2023/10/14 02:12:11;;;;;;;21.45;9.02;;;;;;;13.18;100.00;98460.81;5158391;27;20137;-61
2023/10/14 02:14:40;;;;;;;13.93;8.68;;;;;;;12.84;100.00;98477.84;5158927;27;20046;-60
2023/10/14 02:17:06;;;;;;;14.02;11.60;;;;;;;12.86;100.00;98467.22;5158447;27;20309;-59
2023/10/14 02:19:36;;;;;;;11.90;8.63;;;;;;;12.90;100.00;98440.50;5158763;27;20042;-56
2023/10/14 02:22:03;;;;;;;19.42;8.60;;;;;;;13.07;100.00;98438.09;5158572;27;20050;-59
2023/10/14 02:24:29;;;;;;;24.02;8.52;;;;;;;12.90;100.00;98447.97;5158479;27;20384;-56
2023/10/14 02:26:57;;;;;;;13.52;7.97;;;;;;;12.94;100.00;98449.50;5158589;27;20046;-57
2023/10/14 02:29:24;;;;;;;15.65;12.45;;;;;;;12.87;100.00;98424.00;5158446;27;20051;-54
2023/10/14 02:31:50;;;;;;;11.60;8.00;;;;;;;12.80;100.00;98413.81;5158265;27;20051;-54
2023/10/14 02:34:18;;;;;;;15.90;8.38;;;;;;;12.94;100.00;98393.72;5158299;27;20050;-56
2023/10/14 02:36:48;;;;;;;12.13;8.00;;;;;;;12.78;100.00;98393.38;5158491;27;20118;-56
2023/10/14 02:39:15;;;;;;;17.73;7.93;;;;;;;12.89;100.00;98381.13;5158033;27;20050;-59
2023/10/14 02:41:43;;;;;;;12.38;8.55;;;;;;;12.91;100.00;98378.00;5158471;27;20072;-56
2023/10/14 02:44:19;;;;;;;20.42;9.20;;;;;;;12.82;100.00;98375.66;5157998;27;20061;-57
2023/10/14 02:46:46;;;;;;;18.30;8.75;;;;;;;13.03;100.00;98369.31;5157912;27;20435;-59
2023/10/14 02:49:14;;;;;;;19.35;8.35;;;;;;;12.91;100.00;98375.25;5157975;27;20432;-59
2023/10/14 02:51:42;;;;;;;15.25;8.68;;;;;;;12.89;100.00;98388.59;5158085;27;20051;-55
2023/10/14 02:54:15;;;;;;;13.18;7.82;;;;;;;13.03;100.00;98369.31;5158221;27;20051;-59
2023/10/14 02:56:55;;;;;;;15.85;8.93;;;;;;;12.84;100.00;98370.56;5157993;27;20046;-56
2023/10/14 02:59:29;;;;;;;20.23;8.93;;;;;;;13.00;100.00;98356.34;5158117;27;20055;-56
2023/10/14 03:02:10;;;;;;;16.30;9.15;;;;;;;12.89;100.00;98353.63;5157870;27;20116;-57
2023/10/14 03:04:43;;;;;;;14.55;8.68;;;;;;;12.93;100.00;98339.88;5158548;27;20046;-60
2023/10/14 03:07:09;;;;;;;12.75;9.23;;;;;;;12.99;100.00;98318.22;5158200;27;20119;-57
2023/10/14 03:09:35;;;;;;;21.17;9.75;;;;;;;13.38;100.00;98313.28;5157862;27;20043;-58
2023/10/14 03:12:01;;;;;;;16.13;9.15;;;;;;;13.16;100.00;98331.91;5157984;27;20133;-60
2023/10/14 03:14:29;;;;;;;13.23;9.13;;;;;;;13.03;100.00;98339.03;5157932;27;20051;-57
2023/10/14 03:16:54;;;;;;;11.70;9.00;;;;;;;13.08;100.00;98330.34;5157679;27;20065;-57
2023/10/14 03:19:21;;;;;;;13.48;9.07;;;;;;;13.14;100.00;98333.47;5157443;27;20145;-56
2023/10/14 03:21:58;;;;;;;17.60;8.68;;;;;;;12.92;100.00;98333.56;5157929;27;20046;-55
2023/10/14 03:24:25;;;;;;;14.48;7.82;;;;;;;13.06;100.00;98309.91;5157574;27;20050;-56
2023/10/14 03:26:58;;;;;;;13.02;8.88;;;;;;;12.85;100.00;98310.81;5157542;27;20341;-57
2023/10/14 03:29:25;;;;;;;18.52;14.00;;;;;;;12.83;100.00;98297.50;5157338;27;20420;-60
2023/10/14 03:31:55;;;;;;;17.92;9.60;;;;;;;12.91;100.00;98304.50;5157555;27;20118;-58
2023/10/14 03:34:25;;;;;;;14.43;9.52;;;;;;;12.90;100.00;98296.66;5157444;27;20523;-60
2023/10/14 03:37:00;;;;;;;14.38;9.15;;;;;;;12.91;100.00;98298.22;5157304;27;20412;-60
2023/10/14 03:39:41;;;;;;;20.00;10.25;;;;;;;12.99;100.00;98301.72;5157358;27;20403;-57
2023/10/14 03:42:11;;;;;;;17.23;9.30;;;;;;;13.29;100.00;98312.94;5157398;27;20133;-61
2023/10/14 03:44:41;;;;;;;20.02;10.52;;;;;;;13.24;100.00;98324.41;5157649;27;20141;-60
2023/10/14 03:47:14;;;;;;;17.65;9.82;;;;;;;13.22;100.00;98321.22;5157277;27;20142;-58
2023/10/14 03:49:41;;;;;;;20.65;9.85;;;;;;;13.14;100.00;98326.00;5157443;27;20475;-57
2023/10/14 03:52:10;;;;;;;30.63;11.75;;;;;;;13.46;100.00;98327.78;5157145;27;20178;-58
2023/10/14 03:54:41;;;;;;;18.52;9.10;;;;;;;13.13;100.00;98345.69;5157369;27;20055;-57
2023/10/14 03:57:07;;;;;;;14.63;9.50;;;;;;;13.14;100.00;98344.47;5158209;27;20046;-60
2023/10/14 03:59:33;;;;;;;15.02;9.23;;;;;;;13.21;100.00;98305.91;5160725;27;20050;-58
2023/10/14 04:02:02;;;;;;;14.13;9.20;;;;;;;12.97;100.00;98304.09;5160952;27;20153;-60
2023/10/14 04:04:30;;;;;;;18.02;9.95;;;;;;;13.00;100.00;98273.81;5160653;27;20053;-54
2023/10/14 04:09:37;;;;;;;32.97;12.25;;;;;;;13.32;100.00;98275.56;5160089;27;20061;-55
2023/10/14 04:12:07;;;;;;;20.80;11.50;;;;;;;13.15;100.00;98294.53;5160883;27;20057;-56
2023/10/14 04:14:36;;;;;;;18.08;10.32;;;;;;;12.98;100.00;98284.41;5160343;27;20066;-58
2023/10/14 04:17:10;;;;;;;16.45;9.25;;;;;;;12.89;100.00;98270.31;5160487;27;20051;-60
2023/10/14 04:19:47;;;;;;;;;;;;;;;12.94;100.00;98250.66;5160981;27;20050;-56
2023/10/14 04:22:28;;;;;;;16.95;10.30;;;;;;;13.05;100.00;98239.56;5160230;27;19923;-60
2023/10/14 04:25:07;;;;;;;20.27;11.95;;;;;;;13.39;100.00;98226.78;5160627;27;20078;-56
2023/10/14 04:27:35;;;;;;;17.70;9.40;;;;;;;12.85;100.00;98239.31;5160422;27;20061;-54
2023/10/14 04:30:11;;;;;;;17.45;10.32;;;;;;;12.99;100.00;98241.97;5160545;27;20111;-58
2023/10/14 04:32:43;;;;;;;14.60;9.57;;;;;;;13.10;100.00;98231.69;5160464;27;20074;-54
2023/10/14 04:35:12;;;;;;;22.90;17.02;;;;;;;13.01;100.00;98250.59;5160247;27;20047;-58
2023/10/14 04:37:50;;;;;;;14.75;9.55;;;;;;;12.85;100.00;98242.06;5160021;27;20076;-56
2023/10/14 04:40:34;;;;;;;22.27;10.98;;;;;;;13.15;100.00;98239.50;5159739;27;20084;-58
2023/10/14 04:43:02;;;;;;;20.50;10.55;;;;;;;12.92;100.00;98236.50;5160553;27;20142;-59
2023/10/14 04:45:31;;;;;;;15.93;10.63;;;;;;;13.09;100.00;98246.59;5159858;27;20608;-58
2023/10/14 04:47:58;;;;;;;18.60;16.23;;;;;;;13.07;100.00;98259.22;5160330;27;20137;-59
2023/10/14 04:50:25;;;;;;;15.40;10.52;;;;;;;13.15;100.00;98258.75;5159732;27;20335;-55
2023/10/14 04:52:51;;;;;;;16.88;11.15;;;;;;;13.14;100.00;98267.44;5159873;27;20046;-56
2023/10/14 04:55:25;;;;;;;25.05;11.57;;;;;;;13.16;100.00;98276.03;5160041;27;20133;-54
2023/10/14 04:58:06;;;;;;;18.15;10.45;;;;;;;13.11;100.00;98276.50;5159690;27;20339;-59
2023/10/14 05:00:33;;;;;;;16.42;10.15;;;;;;;13.08;100.00;98264.31;5159773;27;20435;-59
2023/10/14 05:03:01;;;;;;;27.35;12.52;;;;;;;13.32;100.00;98259.06;5159564;27;20051;-60
2023/10/14 05:05:32;;;;;;;17.60;11.50;;;;;;;13.41;100.00;98271.19;5159979;27;20046;-56
2023/10/14 05:07:59;;;;;;;16.88;11.85;;;;;;;13.38;100.00;98274.75;5159337;27;20055;-57
2023/10/14 05:10:27;;;;;;;21.13;10.45;;;;;;;13.04;100.00;98268.28;5159903;27;20099;-58
2023/10/14 05:12:53;;;;;;;23.90;11.23;;;;;;;13.04;100.00;98247.06;5159389;27;20141;-56
2023/10/14 05:15:20;;;;;;;17.23;11.55;;;;;;;13.14;100.00;98237.94;5159552;27;20437;-60
2023/10/14 05:17:49;;;;;;;20.85;11.90;;;;;;;13.34;100.00;98229.94;5159682;27;20054;-56
2023/10/14 05:20:18;;;;;;;21.10;13.07;;;;;;;13.42;100.00;98238.91;5159644;27;20180;-54
2023/10/14 05:22:47;;;;;;;18.42;12.40;;;;;;;13.02;100.00;98245.88;5159873;27;20065;-54
2023/10/14 05:25:15;;;;;;;19.27;11.07;;;;;;;13.22;100.00;98237.88;5159337;27;20065;-58
2023/10/14 05:27:46;;;;;;;21.17;12.07;;;;;;;13.30;100.00;98242.97;5159561;27;20107;-59
2023/10/14 05:30:15;;;;;;;21.30;11.98;;;;;;;13.22;100.00;98232.38;5159136;27;20050;-57
2023/10/14 05:32:43;;;;;;;25.58;12.57;;;;;;;13.33;100.00;98225.63;5159532;27;20140;-61
2023/10/14 05:35:09;;;;;;;20.35;11.85;;;;;;;13.03;100.00;98236.44;5159093;27;20058;-56
2023/10/14 05:37:36;;;;;;;21.02;12.65;;;;;;;13.40;100.00;98233.06;5159475;27;20042;-59
2023/10/14 05:40:04;;;;;;;21.25;12.07;;;;;;;13.28;100.00;98231.56;5158648;27;20057;-57
2023/10/14 05:42:30;;;;;;;20.83;11.85;;;;;;;13.57;100.00;98250.59;5159097;27;20057;-58
2023/10/14 05:44:57;;;;;;;18.58;11.50;;;;;;;13.28;100.00;98267.34;5159184;27;20047;-59
2023/10/14 05:47:27;;;;;;;19.73;11.88;;;;;;;13.29;100.00;98257.13;5159259;27;20061;-55
2023/10/14 05:49:53;;;;;;;21.40;11.82;;;;;;;13.35;100.00;98241.72;5158956;27;20051;-57
2023/10/14 05:52:21;;;;;;;15.43;11.13;;;;;;;13.45;100.00;98234.56;5158820;27;20154;-54
2023/10/14 05:54:49;;;;;;;20.58;11.57;;;;;;;13.33;100.00;98242.16;5158970;27;20420;-55
2023/10/14 05:57:17;;;;;;;21.35;12.25;;;;;;;13.27;100.00;98215.47;5159025;27;20051;-59
2023/10/14 05:59:44;;;;;;;20.20;12.07;;;;;;;13.27;100.00;98207.22;5159000;27;20111;-59
2023/10/14 06:02:12;;;;;;;19.85;12.07;;;;;;;13.46;100.00;98209.38;5158586;27;20107;-57
2023/10/14 06:04:39;;;;;;;24.20;12.50;;;;;;;13.53;100.00;98214.03;5159115;27;20065;-59
2023/10/14 06:07:06;;;;;;;28.02;13.18;;;;;;;13.86;100.00;98240.09;5158736;27;20046;-58
2023/10/14 06:09:32;;;;;;;18.58;11.27;;;;;;;13.50;100.00;98261.69;5158378;27;20154;-59
2023/10/14 06:11:58;;;;;;;16.30;10.88;;;;;;;13.33;100.00;98247.66;5158689;27;20058;-57
2023/10/14 06:14:25;;;;;;;20.48;11.02;;;;;;;13.73;100.00;98226.06;5158389;27;20055;-54
2023/10/14 06:16:51;;;;;;;16.05;10.98;;;;;;;13.56;100.00;98244.31;5158513;27;20146;-55
2023/10/14 06:19:18;;;;;;;18.35;9.60;;;;;;;13.57;100.00;98245.88;5157898;27;20137;-57
2023/10/14 06:21:44;;;;;;;15.75;9.57;;;;;;;13.67;100.00;98246.19;5158260;27;20327;-54
2023/10/14 06:24:12;;;;;;;18.00;10.55;;;;;;;13.96;100.00;98257.69;5158314;27;20434;-58
2023/10/14 06:26:38;;;;;;;13.45;9.88;;;;;;;13.85;100.00;98277.88;5158690;27;20050;-59
2023/10/14 06:29:05;;;;;;;23.98;11.40;;;;;;;13.99;100.00;98315.53;5158453;27;20058;-60
2023/10/14 06:31:37;;;;;;;16.95;9.63;;;;;;;13.82;100.00;98322.75;5158654;27;20076;-54
2023/10/14 06:34:08;;;;;;;17.00;10.55;;;;;;;14.03;100.00;98324.56;5158001;27;20487;-60
2023/10/14 06:36:34;;;;;;;22.85;10.10;;;;;;;13.94;100.00;98338.03;5158322;27;20050;-57
2023/10/14 06:39:13;;;;;;;19.00;9.65;;;;;;;14.13;100.00;98367.00;5158182;27;20050;-60
2023/10/14 06:41:43;;;;;;;21.52;11.13;;;;;;;14.00;100.00;98380.50;5157566;27;20438;-59
2023/10/14 06:44:09;;;;;;;17.48;9.90;;;;;;;13.78;100.00;98357.06;5158207;27;20056;-55
2023/10/14 06:46:35;;;;;;;22.55;14.93;;;;;;;14.03;100.00;98327.31;5157983;27;20050;-59
2023/10/14 06:49:01;;;;;;;17.10;10.57;;;;;;;13.86;100.00;98300.69;5158265;27;20141;-59
2023/10/14 06:51:27;;;;;;;18.05;10.23;;;;;;;13.87;100.00;98277.47;5157817;27;20051;-59
2023/10/14 06:53:55;;;;;;;18.73;10.77;;;;;;;13.76;100.00;98257.50;5158273;27;20054;-60
2023/10/14 06:56:21;;;;;;;15.82;10.27;;;;;;;13.60;100.00;98214.78;5157726;27;20107;-58
2023/10/14 06:58:47;;;;;;;19.35;10.85;;;;;;;13.85;100.00;98191.69;5158057;27;20050;-59
2023/10/14 07:01:13;;;;;;;20.25;11.20;;;;;;;13.75;100.00;98192.59;5157987;27;20066;-59
2023/10/14 07:03:41;;;;;;;23.77;12.20;;;;;;;14.28;100.00;98182.91;5157850;27;20101;-61
2023/10/14 07:06:09;;;;;;;33.72;15.52;;;;;;;14.00;100.00;98192.34;5158023;27;20115;-57
2023/10/14 07:08:36;;;;;;;28.90;20.23;;;;;;;13.67;100.00;98164.34;5157928;27;20077;-55
2023/10/14 07:11:02;;;;;;;21.42;12.73;;;;;;;13.85;100.00;98145.63;5157945;27;20053;-54
2023/10/14 07:13:30;;;;;;;26.88;13.10;;;;;;;13.74;100.00;98138.69;5157659;27;20047;-56
2023/10/14 07:16:03;;;;;;;21.52;11.95;;;;;;;13.62;100.00;98127.00;5157882;27;20086;-60
2023/10/14 07:18:29;;;;;;;29.77;12.77;;;;;;;13.88;100.00;98108.22;5157540;27;20051;-57
2023/10/14 07:20:57;;;;;;;24.88;12.05;;;;;;;13.76;100.00;98104.06;5158014;27;20470;-59
2023/10/14 07:23:23;;;;;;;19.45;11.27;;;;;;;13.96;100.00;98114.41;5157386;27;20054;-55
2023/10/14 07:25:49;;;;;;;22.10;11.68;;;;;;;14.18;100.00;98110.19;5157907;27;20046;-58
2023/10/14 07:28:15;;;;;;;15.50;10.75;;;;;;;13.83;100.00;98116.97;5157654;27;20488;-56
2023/10/14 07:30:46;;;;;;;20.52;10.35;;;;;;;14.10;100.00;98114.25;5157455;27;20404;-59
2023/10/14 07:33:12;;;;;;;28.05;10.95;;;;;;;14.23;100.00;98114.44;5160971;27;20053;-56
2023/10/14 07:35:40;;;;;;;22.70;10.13;;;;;;;14.33;100.00;98130.88;5160675;27;20436;-57
2023/10/14 07:38:07;;;;;;;21.60;10.38;;;;;;;14.49;100.00;98155.06;5161061;27;20051;-54
2023/10/14 07:40:34;;;;;;;20.30;14.75;;;;;;;14.67;100.00;98176.13;5160659;27;20388;-59
2023/10/14 07:43:05;;;;;;;14.95;9.90;;;;;;;14.44;100.00;98187.84;5161221;27;20074;-57
2023/10/14 07:45:33;;;;;;;21.58;11.48;;;;;;;14.77;100.00;98192.53;5160736;27;20408;-58
2023/10/14 07:48:00;;;;;;;20.52;10.85;;;;;;;14.91;100.00;98199.81;5160737;27;20061;-59
2023/10/14 07:50:31;;;;;;;20.23;10.05;;;;;;;14.66;100.00;98219.50;5160862;27;20058;-57
2023/10/14 07:53:07;;;;;;;23.45;10.35;;;;;;;14.83;100.00;98214.91;5160855;27;20110;-56
2023/10/14 07:55:35;;;;;;;16.30;10.00;;;;;;;14.72;100.00;98222.53;5160668;27;20316;-58
2023/10/14 07:58:01;;;;;;;15.80;9.48;;;;;;;14.75;100.00;98221.72;5160727;27;20420;-59
2023/10/14 08:00:37;;;;;;;17.55;14.30;;;;;;;14.62;100.00;98234.50;5160750;27;20054;-58
2023/10/14 08:03:06;;;;;;;15.25;9.13;;;;;;;14.64;100.00;98215.59;5160521;27;20138;-59
2023/10/14 08:05:34;;;;;;;17.30;8.65;;;;;;;15.12;100.00;98244.84;5160722;27;20046;-57
2023/10/14 08:08:06;;;;;;;18.13;9.68;;;;;;;15.23;100.00;98262.81;5160324;27;20058;-56
2023/10/14 08:10:34;;;;;;;17.05;13.63;;;;;;;15.16;100.00;98286.97;5160682;27;20047;-55
2023/10/14 08:13:01;;;;;;;19.55;9.55;;;;;;;15.24;100.00;98311.31;5160184;27;20540;-57
2023/10/14 08:15:29;;;;;;;18.55;9.30;;;;;;;15.65;100.00;98335.16;5160409;27;20106;-57
2023/10/14 08:17:58;;;;;;;21.92;13.07;;;;;;;15.63;100.00;98356.91;5160140;27;20072;-54
2023/10/14 08:20:24;;;;;;;16.58;9.13;;;;;;;15.66;100.00;98352.50;5160236;27;20057;-58
2023/10/14 08:22:50;;;;;;;21.08;12.48;;;;;;;15.54;100.00;98359.41;5160405;27;20316;-56
2023/10/14 08:25:18;;;;;;;14.38;8.68;;;;;;;16.03;100.00;98394.97;5160191;27;20077;-53
2023/10/14 08:27:46;;;;;;;13.10;8.30;;;;;;;15.90;100.00;98420.47;5160449;27;20057;-56
2023/10/14 08:30:12;;;;;;;15.82;7.88;;;;;;;15.85;100.00;98411.84;5160127;27;20050;-59
2023/10/14 08:32:39;;;;;;;12.20;8.32;;;;;;;17.38;100.00;98413.81;5160294;27;20137;-58
2023/10/14 08:35:14;;;;;;;11.07;8.07;;;;;;;16.84;100.00;98328.31;5159926;27;20416;-55
2023/10/14 08:37:42;;;;;;;17.02;8.35;;;;;;;16.89;100.00;98349.94;5160334;27;20107;-59
2023/10/14 08:40:15;;;;;;;21.95;9.13;;;;;;;16.51;100.00;98382.69;5159929;27;20091;-54
2023/10/14 08:42:45;;;;;;;12.77;8.52;;;;;;;17.36;100.00;98316.47;5159156;27;20154;-58
2023/10/14 08:45:12;;;;;;;11.13;7.55;;;;;;;16.70;100.00;98302.47;5160028;27;20050;-58
2023/10/14 08:47:40;;;;;;;16.00;7.53;;;;;;;16.82;100.00;98289.97;5159869;27;20073;-59
2023/10/14 08:50:09;;;;;;;23.38;9.32;;;;;;;16.74;100.00;98332.06;5160097;27;20054;-58
2023/10/14 08:52:37;;;;;;;17.85;9.00;;;;;;;17.03;100.00;98276.91;5159476;27;20134;-58
2023/10/14 08:55:05;;;;;;;13.70;7.80;;;;;;;17.07;100.00;98285.91;5160053;27;20106;-55
2023/10/14 08:57:32;;;;;;;14.68;7.03;;;;;;;16.96;100.00;98296.41;5159528;27;20043;-58
2023/10/14 08:59:57;;;;;;;18.48;8.98;;;;;;;17.41;100.00;98297.34;5159932;27;20315;-54
2023/10/14 09:02:25;;;;;;;16.50;8.23;;;;;;;16.90;100.00;98271.25;5159522;27;20043;-57
2023/10/14 09:04:51;;;;;;;12.90;7.57;;;;;;;17.39;100.00;98174.31;5159929;27;20096;-56
2023/10/14 09:07:22;;;;;;;15.18;7.25;;;;;;;17.73;100.00;98118.41;5159672;27;20119;-57
2023/10/14 09:09:51;;;;;;;17.73;8.05;;;;;;;17.42;100.00;98059.88;5159458;27;20112;-58
2023/10/14 09:12:17;;;;;;;27.67;7.97;;;;;;;17.10;100.00;98063.50;5159829;27;20047;-57
2023/10/14 09:14:43;;;;;;;14.90;7.38;;;;;;;17.39;100.00;98093.97;5159519;27;20057;-55
2023/10/14 09:17:10;;;;;;;27.88;9.52;;;;;;;17.37;100.00;98071.50;5159607;27;20127;-56
2023/10/14 09:19:47;;;;;;;21.75;8.23;;;;;;;16.83;100.00;98081.19;5159259;27;20387;-60
2023/10/14 09:22:21;;;;;;;17.30;8.50;;;;;;;17.57;100.00;98124.00;5159692;27;20090;-58
2023/10/14 09:24:48;;;;;;;;;;;;;;;17.03;100.00;98003.56;5159509;27;20331;-59
2023/10/14 09:27:14;;;;;;;20.73;8.63;;;;;;;17.05;100.00;98069.56;5159584;27;20030;-60
2023/10/14 09:29:40;;;;;;;16.63;7.80;;;;;;;17.10;100.00;98163.19;5159018;27;20471;-59
2023/10/14 09:32:06;;;;;;;19.13;10.90;;;;;;;16.75;100.00;98162.81;5159194;27;20078;-60
2023/10/14 09:34:32;;;;;;;17.65;6.95;;;;;;;16.92;100.00;98139.47;5159064;27;20061;-56
2023/10/14 09:37:10;;;;;;;16.05;10.05;;;;;;;16.89;100.00;98128.47;5159044;27;20042;-58
2023/10/14 09:39:39;;;;;;;23.00;8.93;;;;;;;17.30;100.00;98078.00;5159045;27;20082;-56
2023/10/14 09:42:10;;;;;;;14.00;7.53;;;;;;;17.06;100.00;98010.19;5158809;27;20046;-58
2023/10/14 09:44:36;;;;;;;19.33;11.02;;;;;;;17.63;100.00;97978.91;5159219;27;20046;-57
2023/10/14 09:47:04;;;;;;;10.65;6.45;;;;;;;17.23;100.00;97790.16;5158897;27;20114;-59
2023/10/14 09:49:31;;;;;;;13.10;7.18;;;;;;;17.35;100.00;97888.31;5159248;27;20055;-58
2023/10/14 09:51:59;;;;;;;17.33;6.68;;;;;;;17.05;100.00;97956.81;5158751;27;20042;-57
2023/10/14 09:54:27;;;;;;;17.48;7.53;;;;;;;18.08;100.00;97799.69;5158071;27;20440;-57
2023/10/14 09:56:54;;;;;;;16.67;6.93;;;;;;;18.04;100.00;97674.28;5158784;27;20362;-58
2023/10/14 09:59:21;;;;;;;20.90;6.47;;;;;;;17.75;100.00;97752.06;5158475;27;20424;-59
2023/10/14 10:01:47;;;;;;;14.70;6.70;;;;;;;18.38;100.00;97597.72;5158852;27;20350;-57
2023/10/14 10:04:17;;;;;;;11.15;6.25;;;;;;;17.79;100.00;97575.34;5158674;27;20141;-56
2023/10/14 10:07:02;;;;;;;13.93;6.80;;;;;;;17.85;100.00;97631.78;5158811;27;20198;-57
2023/10/14 10:09:54;;;;;;;18.90;6.45;;;;;;;17.63;100.00;97717.66;5158381;27;20488;-60
2023/10/14 10:12:22;;;;;;;22.50;5.97;;;;;;;18.08;100.00;97583.41;5158768;27;20046;-60
2023/10/14 10:15:01;;;;;;;17.98;6.80;;;;;;;18.35;100.00;97533.59;5158909;27;20051;-57
2023/10/14 10:17:27;;;;;;;11.73;5.88;;;;;;;18.71;100.00;97307.34;5158473;27;20073;-55
2023/10/14 10:20:09;;;;;;;15.00;5.90;;;;;;;18.53;100.00;97285.94;5158267;27;20058;-59
2023/10/14 10:22:44;;;;;;;16.95;6.10;;;;;;;18.31;100.00;97319.38;5158197;27;20057;-58
2023/10/14 10:25:14;;;;;;;15.75;6.65;;;;;;;18.88;100.00;97188.41;5158515;27;20057;-57
2023/10/14 10:27:42;;;;;;;12.25;6.45;;;;;;;19.37;100.00;97011.47;5158256;27;20062;-56
2023/10/14 10:30:12;;;;;;;14.23;6.25;;;;;;;19.87;100.00;96905.97;5158565;27;20050;-58
2023/10/14 10:32:38;;;;;;;9.77;5.70;;;;;;;20.14;100.00;96871.47;5158175;27;20051;-60
2023/10/14 10:35:17;;;;;;;11.85;5.20;;;;;;;19.65;100.00;96839.69;5158246;27;20054;-58
2023/10/14 10:37:50;;;;;;;14.57;8.13;;;;;;;19.67;100.00;96887.97;5158364;27;20372;-60
2023/10/14 10:40:22;;;;;;;13.68;5.80;;;;;;;19.33;100.00;96935.88;5157806;27;20050;-61
2023/10/14 10:42:53;;;;;;;14.50;5.57;;;;;;;19.35;100.00;96939.69;5158328;27;20050;-61
2023/10/14 10:45:20;;;;;;;20.48;7.03;;;;;;;19.39;100.00;96928.38;5157805;27;20062;-60
2023/10/14 10:47:52;;;;;;;14.25;7.85;;;;;;;20.04;100.00;96929.25;5158151;27;20404;-60
2023/10/14 10:50:18;;;;;;;18.90;8.32;;;;;;;20.00;100.00;96863.97;5157669;27;20441;-61
2023/10/14 10:52:54;;;;;;;11.82;5.40;;;;;;;19.75;100.00;96849.44;5158109;27;20046;-60
2023/10/14 10:55:23;;;;;;;11.60;5.20;;;;;;;20.04;100.00;96822.78;5157578;27;20529;-60
2023/10/14 10:57:56;;;;;;;10.80;5.60;;;;;;;20.14;100.00;96826.97;5157699;27;20050;-59
2023/10/14 11:00:23;;;;;;;21.50;6.95;;;;;;;20.59;100.00;96816.41;5157799;27;20050;-59
2023/10/14 11:02:54;;;;;;;16.00;7.40;;;;;;;20.58;100.00;96817.66;5157453;27;20054;-61
2023/10/14 11:05:20;;;;;;;15.80;5.53;;;;;;;20.28;100.00;96833.72;5157964;27;20047;-59
2023/10/14 11:07:47;;;;;;;14.18;7.18;;;;;;;20.38;100.00;96810.06;5160966;27;20076;-60
2023/10/14 11:10:14;;;;;;;12.43;6.75;;;;;;;20.31;100.00;96818.84;5161675;27;20118;-57
2023/10/14 11:12:40;;;;;;;18.15;4.90;;;;;;;20.61;100.00;96850.84;5161462;27;20057;-58
2023/10/14 11:15:18;;;;;;;14.90;5.00;;;;;;;20.07;100.00;96819.03;5161550;27;20129;-57
2023/10/14 11:17:46;;;;;;;15.18;5.72;;;;;;;20.21;100.00;96821.00;5161375;27;20047;-58
2023/10/14 11:20:15;;;;;;;12.60;5.20;;;;;;;20.01;100.00;96795.94;5161193;27;20102;-56
2023/10/14 11:22:41;;;;;;;20.17;7.10;;;;;;;20.05;100.00;96788.94;5161578;27;20046;-55
2023/10/14 11:25:07;;;;;;;20.65;6.45;;;;;;;20.07;100.00;96786.44;5160941;27;20437;-58